Forside
METAR-TAF:

METAR-TAF

Lufthavne :

Dodge Center Airport (Dodge Center Municipal)

Dodge Center, Minnesota, USA

Breddekreds: 44-01-05N, længdekreds: 092-49-53W, højde: 398 m

Aktuelle vejr

Denne rapport blev lavet for 26 minutter siden, kl. 12:15 UTC
Vind 11 kt fra sydøst
Temperatur 0°C
Fugtighed 93%
Tryk 1016 hPa
Sigt: 4.0 km
Brudte skyer i en højde af 700 ft
Overskyet i en højde af 1900 ft

METAR: KTOB 241215Z AUTO 13011KT 2 1/2SM BKN007 OVC019 00/M01 A2999 RMK AO2 PWINO

Tid: 06:41 (12:41 UTC)


TAF: fraværende

Vejrobservationer og prognoser fra mere end 4000 lufthavne (METAR og TAF).

De gule og røde prikker repræsenterer de meteorologiske stationer.

Flyt musen over at se navnet på stationen.

Så klik over at se vejr observationer og prognoser.

At skifte det kort: Klik på de grønne knapper med et sort kors for at zoome ind; på den grønne knap med en bindestreg for at zoome ud; eller på de grønne pile for tilstødende kort.


METAR-TAF: